Skip Navigation Links Skip Navigation Links

Current Weather

Pond Inlet, Nunavut

For information only: do not use for flight planning or navigation.
Latest weather
Observation time Friday, November 17, 2017 3:00 PM EST
Local time Friday, November 17, 2017 4:19 PM EST
Flight conditions Visual Meteorological Conditions
Winds
Wind direction South-Southeast (150°)
Wind speed 8 mph
Visibility 9 mi.
Sky condition
Ceiling 3,400 ft. broken clouds
Cloud layer broken clouds 3,400 ft.
Temperature -6°F
Dewpoint -13°F
Altimeter 30.35 in.Hg
Derived measurements
Relative humidity 70%
Wind chill -21°F
Density altitude -5046 ft.
Sea-level pressure 30.39 in.Hg
Remarks
Fully automated report.
METAR CYIO 172000Z AUTO 15007KT 9SM BKN034 M21/M25 A3035 RMK SLP291

Settings

Location code

InnerDrive.Weather 4.0.6144.1 Release CLR 4.0.30319.36366
Copyright ©2015 Inner Drive Technology. All rights reserved. Portions Copyright ©1986-2015 David Braverman.

Find weather

Site navigation


Skip Navigation Links

Place info

Page info

PayPal - The safer, easier way to pay online!

Return home.

Copyright ©2017 Inner Drive Technology. Purveyors of fine, hand-crafted computer software. Page printed 2017-11-17T21:19:57 UTC.